WetterOnline ( https://www.wetteronline.at )

Wetter aktuell Finsterwalde

Aktuelles Wetter: Kirchhain (100m)

6-stündlich | Neueste Meldungen
Ortszeit Temperatur Wetter
Mo, 14.10. 2:00 17.6° C wolkenlos
So, 13.10. 20:00 20.3° C bedeckt
So, 13.10. 14:00 24.3° C leicht bewölkt
So, 13.10. 8:00 15.8° C bedeckt
So, 13.10. 2:00 18.0° C wolkig
Sa, 12.10. 20:00 18.0° C wolkig
Sa, 12.10. 14:00 21.4° C wolkenlos
Sa, 12.10. 8:00 13.7° C wolkenlos
Ortszeit Temperatur Wetter
Mo, 14.10. 2:30 16.5° C wolkenlos
Mo, 14.10. 2:20 16.5° C wolkenlos
Mo, 14.10. 2:10 16.8° C wolkenlos
Mo, 14.10. 2:00 17.6° C wolkenlos
Mo, 14.10. 1:40 17.5° C wolkenlos
Mo, 14.10. 1:30 17.7° C wolkenlos
Mo, 14.10. 1:00 18.1° C fast wolkenlos
Mo, 14.10. 0:30 18.3° C bedeckt
Mo, 14.10. 0:00 18.0° C bewölkt
So, 13.10. 23:30 17.5° C wolkenlos
So, 13.10. 23:00 18.0° C wolkenlos
Ortszeit Relative Feuchte Sichtweite
Mo, 14.10. 2:00 71% 40 km
So, 13.10. 20:00 66% 45 km
So, 13.10. 14:00 56% 45 km
So, 13.10. 8:00 78% 65 km
So, 13.10. 2:00 68% 60 km
Sa, 12.10. 20:00 62% 60 km
Sa, 12.10. 14:00 51% 55 km
Sa, 12.10. 8:00 75% 70 km
Ortszeit Relative Feuchte Sichtweite
Mo, 14.10. 2:30 75% 45 km
Mo, 14.10. 2:20 75% -
Mo, 14.10. 2:10 75% -
Mo, 14.10. 2:00 71% 40 km
Mo, 14.10. 1:40 72% -
Mo, 14.10. 1:30 72% 45 km
Mo, 14.10. 1:00 70% 45 km
Mo, 14.10. 0:30 69% 50 km
Mo, 14.10. 0:00 72% 45 km
So, 13.10. 23:30 73% 40 km
So, 13.10. 23:00 72% 40 km
Ortszeit Niederschlagsmenge Niederschlagsart
Mo, 14.10. 2:00 0.0 l/m2 in 6 Std. -
So, 13.10. 20:00 0.0 l/m2 in 12 Std. -
So, 13.10. 14:00 0.0 l/m2 in 6 Std. -
So, 13.10. 8:00 0.1 l/m2 in 12 Std. -
So, 13.10. 2:00 0.1 l/m2 in 6 Std. Regen
Sa, 12.10. 20:00 0.0 l/m2 in 12 Std. -
Sa, 12.10. 14:00 0.0 l/m2 in 6 Std. -
Sa, 12.10. 8:00 0.1 l/m2 in 12 Std. -
Ortszeit Niederschlagsmenge Niederschlagsart
Mo, 14.10. 2:30 0.0 l/m2 in 1 Std. -
Mo, 14.10. 2:20 keine Meldung -
Mo, 14.10. 2:10 keine Meldung -
Mo, 14.10. 2:00 0.0 l/m2 in 1 Std. -
Mo, 14.10. 1:40 keine Meldung -
Mo, 14.10. 1:30 0.0 l/m2 in 1 Std. -
Mo, 14.10. 1:00 0.0 l/m2 in 1 Std. -
Mo, 14.10. 0:30 0.0 l/m2 in 1 Std. -
Mo, 14.10. 0:00 0.0 l/m2 in 1 Std. -
So, 13.10. 23:30 0.0 l/m2 in 1 Std. -
So, 13.10. 23:00 0.0 l/m2 in 1 Std. -
Ortszeit Stärke Spitze Richtung
km/h Bft. km/h Grad Sektor
Mo, 14.10. 2:00 13 3 28 190° S
So, 13.10. 20:00 17 3 30 160° S
So, 13.10. 14:00 13 3 30 200° S
So, 13.10. 8:00 9 2 20 170° S
So, 13.10. 2:00 11 2 32 210° SW
Sa, 12.10. 20:00 11 2 43 210° SW
Sa, 12.10. 14:00 24 4 48 230° SW
Sa, 12.10. 8:00 14 3 32 200° S
Ortszeit Stärke Spitze Richtung
km/h Bft. km/h Grad Sektor
Mo, 14.10. 2:30 13 3 19 180° S
Mo, 14.10. 2:20 13 3 - 180° S
Mo, 14.10. 2:10 13 3 - 180° S
Mo, 14.10. 2:00 13 3 20 190° S
Mo, 14.10. 1:40 14 3 - 190° S
Mo, 14.10. 1:30 13 3 19 190° S
Mo, 14.10. 1:00 13 3 22 190° S
Mo, 14.10. 0:30 15 3 22 180° S
Mo, 14.10. 0:00 14 3 25 180° S
So, 13.10. 23:30 15 3 24 180° S
So, 13.10. 23:00 14 3 22 170° S
Ortszeit Untergrenze Bedeckung Gattung
total tief tief mittel hoch
Mo, 14.10. 2:00 - 0/8 0/8 - - -
So, 13.10. 20:00 4800 m 8/8 8/8 - - -
So, 13.10. 14:00 7800 m 3/8 0/8 - - -
So, 13.10. 8:00 1230 m 8/8 8/8 - - -
So, 13.10. 2:00 2400 m 8/8 3/8 - - -
Sa, 12.10. 20:00 4500 m 6/8 3/8 - - -
Sa, 12.10. 14:00 - 0/8 0/8 - - -
Sa, 12.10. 8:00 - 0/8 0/8 - - -
Ortszeit Bedeckungsgrad in Achtel und Wolkenuntergrenze
Mo, 14.10. 2:30 keine Wolken
Mo, 14.10. 2:20 keine Wolken
Mo, 14.10. 2:10 keine Wolken
Mo, 14.10. 2:00 keine Wolken
Mo, 14.10. 1:40 keine Wolken
Mo, 14.10. 1:30 keine Wolken
Mo, 14.10. 1:00 1(4500m)
Mo, 14.10. 0:30 8(4500m)
Mo, 14.10. 0:00 7(4200m)
So, 13.10. 23:30 3(4200m)
So, 13.10. 23:00 keine Wolken
Ortszeit Luftdruck NN (hPa) Tendenz (hPa in 3 Std.)
Mo, 14.10. 2:00 1014 + 0,6
So, 13.10. 20:00 1013 - 0,2
So, 13.10. 14:00 1014 - 0,5
So, 13.10. 8:00 1014 + 0,7
So, 13.10. 2:00 1013 + 0,3
Sa, 12.10. 20:00 1013 + 1,0
Sa, 12.10. 14:00 1011 - 0,2
Sa, 12.10. 8:00 1011 + 0,2
Ortszeit Luftdruck NN (hPa) Tendenz (hPa in 3 Std.)
Mo, 14.10. 2:30 1014 + 0,7
Mo, 14.10. 2:20 1014 keine Meldung
Mo, 14.10. 2:10 1014 keine Meldung
Mo, 14.10. 2:00 1014 + 0,6
Mo, 14.10. 1:40 1014 keine Meldung
Mo, 14.10. 1:30 1013 + 0,4
Mo, 14.10. 1:00 1013 + 0,2
Mo, 14.10. 0:30 1013 + 0,1
Mo, 14.10. 0:00 1013 + 0,1
So, 13.10. 23:30 1013 + 0,1
So, 13.10. 23:00 1013 + 0,2
Ortszeit Schneehöhe (cm)
Mo, 14.10. 2:00 0
So, 13.10. 20:00 0
So, 13.10. 14:00 0
So, 13.10. 8:00 0
So, 13.10. 2:00 0
Sa, 12.10. 20:00 0
Sa, 12.10. 14:00 0
Sa, 12.10. 8:00 0
Ortszeit Schneehöhe (cm)
Mo, 14.10. 2:30 0
Mo, 14.10. 2:20 0
Mo, 14.10. 2:10 0
Mo, 14.10. 2:00 0
Mo, 14.10. 1:40 0
Mo, 14.10. 1:30 0
Mo, 14.10. 1:00 0
Mo, 14.10. 0:30 0
Mo, 14.10. 0:00 0
So, 13.10. 23:30 0
So, 13.10. 23:00 0
Link zu dieser Seite / Seite empfehlen

Das Wetter in ...